WetterOnline ( https://www.wetteronline.de )

Wetter aktuell Diepholz

Aktuelles Wetter: Diepholz (40m)

6-stündlich | Neueste Meldungen
Ortszeit Temperatur Wetter
So, 16.05. 2:00 9.7° C bedeckt
Sa, 15.05. 20:00 13.1° C wolkig
Sa, 15.05. 14:00 14.4° C bewölkt
Sa, 15.05. 8:00 8.5° C bedeckt
Sa, 15.05. 2:00 6.2° C wolkenlos
Fr, 14.05. 20:00 13.8° C bewölkt
Fr, 14.05. 14:00 12.6° C bewölkt
Fr, 14.05. 8:00 8.0° C bedeckt
Ortszeit Temperatur Wetter
So, 16.05. 5:00 9.5° C bedeckt
So, 16.05. 4:50 9.5° C bedeckt
So, 16.05. 4:40 9.5° C bedeckt
So, 16.05. 4:30 9.6° C bedeckt
So, 16.05. 4:20 9.6° C bedeckt
So, 16.05. 4:10 9.7° C bedeckt
So, 16.05. 4:00 9.8° C bedeckt
So, 16.05. 3:30 9.7° C bedeckt
So, 16.05. 3:00 9.7° C leichter Regen
So, 16.05. 2:30 9.8° C bedeckt
So, 16.05. 2:00 9.7° C bedeckt
Ortszeit Relative Feuchte Sichtweite
So, 16.05. 2:00 95% 30 km
Sa, 15.05. 20:00 74% 40 km
Sa, 15.05. 14:00 68% 30 km
Sa, 15.05. 8:00 100% 2.0 km
Sa, 15.05. 2:00 95% 6 km
Fr, 14.05. 20:00 71% 27 km
Fr, 14.05. 14:00 69% 25 km
Fr, 14.05. 8:00 88% 14 km
Ortszeit Relative Feuchte Sichtweite
So, 16.05. 5:00 95% 13 km
So, 16.05. 4:50 95% -
So, 16.05. 4:40 94% -
So, 16.05. 4:30 93% 21 km
So, 16.05. 4:20 93% -
So, 16.05. 4:10 93% -
So, 16.05. 4:00 93% 21 km
So, 16.05. 3:30 95% 26 km
So, 16.05. 3:00 95% 19 km
So, 16.05. 2:30 94% 35 km
So, 16.05. 2:00 95% 30 km
Ortszeit Niederschlagsmenge Niederschlagsart
So, 16.05. 2:00 0.4 l/m2 in 6 Std. Regen
Sa, 15.05. 20:00 2 l/m2 in 12 Std. Regen
Sa, 15.05. 14:00 0.1 l/m2 in 6 Std. Regen
Sa, 15.05. 8:00 0.0 l/m2 in 12 Std. -
Sa, 15.05. 2:00 0.0 l/m2 in 6 Std. -
Fr, 14.05. 20:00 0.1 l/m2 in 12 Std. Regen
Fr, 14.05. 14:00 0.0 l/m2 in 6 Std. -
Fr, 14.05. 8:00 0.0 l/m2 in 12 Std. -
Ortszeit Niederschlagsmenge Niederschlagsart
So, 16.05. 5:00 0.0 l/m2 in 1 Std. Regen
So, 16.05. 4:50 keine Meldung -
So, 16.05. 4:40 keine Meldung -
So, 16.05. 4:30 0.0 l/m2 in 1 Std. -
So, 16.05. 4:20 keine Meldung -
So, 16.05. 4:10 keine Meldung -
So, 16.05. 4:00 0.1 l/m2 in 1 Std. Regen
So, 16.05. 3:30 0.1 l/m2 in 1 Std. Schneeregen
So, 16.05. 3:00 0.1 l/m2 in 1 Std. Regen
So, 16.05. 2:30 0.1 l/m2 in 1 Std. Schneeregen
So, 16.05. 2:00 0.1 l/m2 in 1 Std. Regen
Ortszeit Stärke Spitze Richtung
km/h Bft. km/h Grad Sektor
So, 16.05. 2:00 7 2 32 190° S
Sa, 15.05. 20:00 9 2 37 160° S
Sa, 15.05. 14:00 17 3 37 180° S
Sa, 15.05. 8:00 9 2 17 90° O
Sa, 15.05. 2:00 0 0 18 - -
Fr, 14.05. 20:00 9 2 28 290° W
Fr, 14.05. 14:00 13 3 20 230° SW
Fr, 14.05. 8:00 7 2 18 300° NW
Ortszeit Stärke Spitze Richtung
km/h Bft. km/h Grad Sektor
So, 16.05. 5:00 9 2 17 200° S
So, 16.05. 4:50 9 2 - 200° S
So, 16.05. 4:40 9 2 - 210° SW
So, 16.05. 4:30 11 2 18 210° SW
So, 16.05. 4:20 11 2 - 210° SW
So, 16.05. 4:10 13 3 - 210° SW
So, 16.05. 4:00 14 3 22 220° SW
So, 16.05. 3:30 11 2 14 190° S
So, 16.05. 3:00 7 2 15 190° S
So, 16.05. 2:30 9 2 15 190° S
So, 16.05. 2:00 7 2 11 190° S
Ortszeit Untergrenze Bedeckung Gattung
total tief tief mittel hoch
So, 16.05. 2:00 600 m 8/8 8/8 - - -
Sa, 15.05. 20:00 2700 m 7/8 7/8 - - -
Sa, 15.05. 14:00 930 m 7/8 7/8 - - -
Sa, 15.05. 8:00 30 m 8/8 8/8 - - -
Sa, 15.05. 2:00 - 0/8 0/8 - - -
Fr, 14.05. 20:00 780 m 7/8 7/8 - - -
Fr, 14.05. 14:00 1500 m 8/8 6/8 - - -
Fr, 14.05. 8:00 240 m 8/8 8/8 - - -
Ortszeit Bedeckungsgrad in Achtel und Wolkenuntergrenze
So, 16.05. 5:00 2(330m) 5(2100m) 8(2700m)
So, 16.05. 4:50 2(330m) 5(2100m) 8(2700m)
So, 16.05. 4:40 4(870m) 7(2100m) 8(2700m)
So, 16.05. 4:30 3(840m) 7(2100m) 8(2700m)
So, 16.05. 4:20 3(840m) 7(2100m) 8(2700m)
So, 16.05. 4:10 2(600m) 7(2100m) 8(2700m)
So, 16.05. 4:00 1(510m) 7(1230m) 8(1440m)
So, 16.05. 3:30 1(870m) 6(1470m) 8(1500m)
So, 16.05. 3:00 1(420m) 7(1800m) 8(3000m)
So, 16.05. 2:30 2(1500m) 8(2400m) 8(3000m)
So, 16.05. 2:00 4(600m) 7(1350m) 8(1800m)
Ortszeit Luftdruck NN (hPa) Tendenz (hPa in 3 Std.)
So, 16.05. 2:00 1001 - 0,7
Sa, 15.05. 20:00 1002 - 1,0
Sa, 15.05. 14:00 1004 - 1,9
Sa, 15.05. 8:00 1006 - 0,5
Sa, 15.05. 2:00 1008 - 0,1
Fr, 14.05. 20:00 1007 - 0,4
Fr, 14.05. 14:00 1008 - 0,1
Fr, 14.05. 8:00 1007 + 0,4
Ortszeit Luftdruck NN (hPa) Tendenz (hPa in 3 Std.)
So, 16.05. 5:00 1001 - 0,2
So, 16.05. 4:50 1001 keine Meldung
So, 16.05. 4:40 1001 keine Meldung
So, 16.05. 4:30 1001 - 0,4
So, 16.05. 4:20 1001 keine Meldung
So, 16.05. 4:10 1001 keine Meldung
So, 16.05. 4:00 1001 - 0,4
So, 16.05. 3:30 1001 - 0,6
So, 16.05. 3:00 1001 - 0,5
So, 16.05. 2:30 1001 - 0,6
So, 16.05. 2:00 1001 - 0,7
Ortszeit Schneehöhe (cm)
So, 16.05. 2:00 0
Sa, 15.05. 20:00 0
Sa, 15.05. 14:00 0
Sa, 15.05. 8:00 0
Sa, 15.05. 2:00 0
Fr, 14.05. 20:00 0
Fr, 14.05. 14:00 0
Fr, 14.05. 8:00 0
Ortszeit Schneehöhe (cm)
So, 16.05. 5:00 0
So, 16.05. 4:50 0
So, 16.05. 4:40 0
So, 16.05. 4:30 0
So, 16.05. 4:20 0
So, 16.05. 4:10 0
So, 16.05. 4:00 0
So, 16.05. 3:30 0
So, 16.05. 3:00 0
So, 16.05. 2:30 0
So, 16.05. 2:00 0
Link zu dieser Seite / Seite empfehlen

Das Wetter in ...